Time;durP1;ratioP1;P1;durP2;ratioP2;P2;SDS_P1;SDS_P2;PMS_P1;PMS_P2;Temp;Humidity;BMP_temperature;BMP_pressure;BME280_temperature;BME280_humidity;BME280_pressure;Samples;Min_cycle;Max_cycle;Signal;HPM_P1;HPM_P2
2022/07/30 00:01:29;;;;;;;5.97;2.80;;;15.40;99.90;;;;;;5057295;28;20100;-69
2022/07/30 00:03:55;;;;;;;6.43;2.67;;;15.40;99.90;;;;;;5060155;28;20036;-69
2022/07/30 00:06:20;;;;;;;8.80;3.65;;;15.40;99.90;;;;;;5059126;28;20029;-69
2022/07/30 00:08:46;;;;;;;6.88;2.92;;;15.40;99.90;;;;;;5061943;28;20025;-69
2022/07/30 00:11:12;;;;;;;6.85;3.20;;;15.30;99.90;;;;;;5059078;28;20060;-69
2022/07/30 00:13:37;;;;;;;11.90;3.85;;;15.20;99.90;;;;;;5054580;28;20042;-69
2022/07/30 00:16:03;;;;;;;7.85;3.22;;;15.10;99.90;;;;;;5055438;28;20429;-69
2022/07/30 00:18:29;;;;;;;6.18;3.70;;;14.90;99.90;;;;;;5041417;28;20084;-69
2022/07/30 00:20:54;;;;;;;6.93;3.53;;;14.80;99.90;;;;;;5061309;28;20783;-69
2022/07/30 00:23:20;;;;;;;8.60;3.67;;;14.70;99.90;;;;;;5056440;28;20090;-69
2022/07/30 00:25:45;;;;;;;6.13;3.35;;;14.70;99.90;;;;;;5060235;28;20028;-69
2022/07/30 00:28:11;;;;;;;7.20;3.35;;;14.70;99.90;;;;;;5058105;28;20071;-69
2022/07/30 00:30:39;;;;;;;9.02;3.40;;;14.70;99.90;;;;;;5056711;28;20044;-69
2022/07/30 00:33:05;;;;;;;6.70;3.60;;;14.60;99.90;;;;;;5059286;28;20594;-68
2022/07/30 00:35:31;;;;;;;6.97;3.40;;;14.60;99.90;;;;;;5059475;28;20028;-68
2022/07/30 00:37:56;;;;;;;7.32;3.47;;;14.60;99.90;;;;;;5057545;28;20036;-68
2022/07/30 00:40:22;;;;;;;6.85;3.25;;;14.50;99.90;;;;;;5058060;28;20039;-68
2022/07/30 00:42:48;;;;;;;7.32;3.65;;;14.50;99.90;;;;;;5057348;28;20661;-68
2022/07/30 00:45:15;;;;;;;9.15;3.90;;;14.50;99.90;;;;;;5058099;28;20491;-68
2022/07/30 00:47:41;;;;;;;8.13;3.78;;;14.50;99.90;;;;;;5060753;28;20039;-68
2022/07/30 00:50:08;;;;;;;6.25;3.60;;;14.50;99.90;;;;;;5058691;28;20032;-68
2022/07/30 00:52:37;;;;;;;6.45;3.63;;;14.40;99.90;;;;;;5059716;28;20036;-68
2022/07/30 00:55:04;;;;;;;6.05;3.22;;;14.40;99.90;;;;;;5056677;28;20036;-69
2022/07/30 00:57:30;;;;;;;5.93;3.20;;;14.40;99.90;;;;;;5059822;28;20024;-68
2022/07/30 00:59:56;;;;;;;5.55;3.35;;;14.40;99.90;;;;;;5040154;28;20032;-68
2022/07/30 01:02:22;;;;;;;8.25;3.10;;;14.50;99.90;;;;;;5060162;28;20473;-68
2022/07/30 01:04:48;;;;;;;7.53;3.60;;;14.50;99.90;;;;;;5043657;28;20035;-68
2022/07/30 01:07:14;;;;;;;7.60;3.80;;;14.60;99.90;;;;;;5056070;28;20032;-68
2022/07/30 01:09:40;;;;;;;9.45;3.38;;;14.60;99.90;;;;;;5058508;28;20047;-68
2022/07/30 01:12:08;;;;;;;6.38;3.30;;;14.70;99.90;;;;;;5056512;28;20052;-69
2022/07/30 01:14:35;;;;;;;6.60;2.85;;;14.70;99.90;;;;;;5041972;28;20032;-69
2022/07/30 01:17:02;;;;;;;6.60;3.40;;;14.80;99.90;;;;;;5054334;28;20037;-69
2022/07/30 01:19:47;;;;;;;6.35;3.08;;;14.80;99.90;;;;;;5056375;28;20033;-68
2022/07/30 01:22:24;;;;;;;5.93;3.15;;;14.70;99.90;;;;;;5041442;28;20058;-68
2022/07/30 01:25:03;;;;;;;6.57;3.15;;;14.60;99.90;;;;;;5043283;28;20037;-69
2022/07/30 01:27:59;;;;;;;6.38;2.90;;;14.50;99.90;;;;;;5058175;28;20048;-68
2022/07/30 01:30:28;;;;;;;7.78;2.80;;;14.40;99.90;;;;;;5042487;28;20151;-69
2022/07/30 01:32:56;;;;;;;6.93;2.97;;;14.40;99.90;;;;;;5064034;28;20029;-69
2022/07/30 01:35:24;;;;;;;8.40;3.30;;;14.40;99.90;;;;;;5062182;28;20035;-69
2022/07/30 01:37:55;;;;;;;7.10;3.55;;;14.30;99.90;;;;;;5062864;28;20136;-69
2022/07/30 01:40:22;;;;;;;6.03;3.58;;;14.20;99.90;;;;;;5046494;28;20574;-69
2022/07/30 01:42:55;;;;;;;7.38;3.60;;;14.10;99.90;;;;;;5062792;28;20032;-70
2022/07/30 01:45:24;;;;;;;8.25;4.00;;;14.10;99.90;;;;;;5044298;28;20119;-69
2022/07/30 01:47:52;;;;;;;8.85;4.20;;;14.10;99.90;;;;;;5043953;28;20060;-68
2022/07/30 01:50:20;;;;;;;10.38;4.55;;;14.00;99.90;;;;;;5060342;28;20047;-68
2022/07/30 01:52:49;;;;;;;8.02;4.47;;;14.00;99.90;;;;;;5060762;28;20036;-68
2022/07/30 01:55:20;;;;;;;7.63;4.35;;;14.00;99.90;;;;;;5062862;28;20040;-68
2022/07/30 01:57:47;;;;;;;8.15;4.20;;;13.90;99.90;;;;;;5061033;28;20050;-68
2022/07/30 02:00:14;;;;;;;10.05;4.60;;;13.90;99.90;;;;;;5061844;28;20115;-67
2022/07/30 02:02:40;;;;;;;9.18;5.18;;;13.80;99.90;;;;;;5062989;28;20052;-68
2022/07/30 02:05:07;;;;;;;9.60;5.00;;;13.80;99.90;;;;;;5061522;28;20040;-68
2022/07/30 02:07:44;;;;;;;6.75;4.15;;;13.70;99.90;;;;;;5061827;28;20524;-68
2022/07/30 02:10:14;;;;;;;10.50;5.82;;;13.70;99.90;;;;;;5059882;28;20040;-68
2022/07/30 02:12:48;;;;;;;8.63;6.05;;;13.70;99.90;;;;;;5060078;28;20048;-68
2022/07/30 02:15:23;;;;;;;11.02;5.40;;;13.60;99.90;;;;;;5056569;28;22008;-68
2022/07/30 02:18:09;;;;;;;9.93;6.60;;;13.50;99.90;;;;;;5056431;28;20036;-68
2022/07/30 02:20:35;;;;;;;11.20;7.07;;;13.50;99.90;;;;;;5058306;28;20104;-69
2022/07/30 02:23:05;;;;;;;9.80;7.25;;;13.40;99.90;;;;;;5061352;28;20535;-69
2022/07/30 02:25:34;;;;;;;13.10;7.97;;;13.40;99.90;;;;;;5044798;28;20060;-69
2022/07/30 02:28:04;;;;;;;13.70;7.97;;;13.30;99.90;;;;;;5044219;28;20028;-69
2022/07/30 02:30:33;;;;;;;11.60;8.23;;;13.20;99.90;;;;;;5061361;28;20035;-69
2022/07/30 02:33:04;;;;;;;11.57;7.10;;;13.20;99.90;;;;;;5060044;28;20075;-69
2022/07/30 02:35:32;;;;;;;11.40;7.00;;;13.10;99.90;;;;;;5061766;28;20079;-69
2022/07/30 02:38:00;;;;;;;11.40;6.93;;;13.10;99.90;;;;;;5055262;28;20449;-69
2022/07/30 02:40:27;;;;;;;11.32;6.10;;;13.10;99.90;;;;;;5044972;28;20036;-69
2022/07/30 02:42:54;;;;;;;10.00;6.38;;;13.10;99.90;;;;;;5060333;28;20032;-68
2022/07/30 02:45:22;;;;;;;11.50;6.88;;;13.00;99.90;;;;;;5063025;28;20064;-68
2022/07/30 02:47:55;;;;;;;8.82;6.53;;;12.90;99.90;;;;;;5045808;28;20036;-68
2022/07/30 02:50:23;;;;;;;9.27;6.72;;;13.00;99.90;;;;;;5059526;28;21490;-69
2022/07/30 02:52:50;;;;;;;10.82;6.38;;;12.90;99.90;;;;;;5059959;28;20033;-69
2022/07/30 02:55:17;;;;;;;10.77;7.28;;;12.90;99.90;;;;;;5057526;28;20024;-69
2022/07/30 02:57:44;;;;;;;10.43;6.47;;;12.90;99.90;;;;;;5061100;28;20028;-68
2022/07/30 03:00:12;;;;;;;11.60;6.82;;;12.90;99.90;;;;;;5040254;28;20398;-69
2022/07/30 03:02:39;;;;;;;12.25;7.10;;;13.00;99.90;;;;;;5063446;28;20032;-69
2022/07/30 03:05:07;;;;;;;11.98;8.07;;;13.00;99.90;;;;;;5042822;28;20033;-69
2022/07/30 03:07:35;;;;;;;11.93;7.18;;;12.90;99.90;;;;;;5059970;28;20155;-69
2022/07/30 03:10:01;;;;;;;10.40;6.72;;;12.80;99.90;;;;;;5061150;28;20234;-69
2022/07/30 03:12:30;;;;;;;12.68;7.25;;;12.80;99.90;;;;;;5059489;28;20036;-69
2022/07/30 03:14:56;;;;;;;10.40;6.93;;;12.70;99.90;;;;;;5040549;28;20039;-69
2022/07/30 03:17:26;;;;;;;13.57;7.38;;;12.60;99.90;;;;;;5058044;28;20051;-69
2022/07/30 03:19:53;;;;;;;;;;;12.60;99.90;;;;;;5061348;28;20447;-69
2022/07/30 03:22:21;;;;;;;12.00;7.13;;;12.70;99.90;;;;;;5061886;28;19912;-68
2022/07/30 03:24:49;;;;;;;11.48;7.30;;;12.70;99.90;;;;;;5058787;28;20028;-69
2022/07/30 03:27:17;;;;;;;12.20;7.93;;;12.70;99.90;;;;;;5058637;28;20052;-69
2022/07/30 03:29:44;;;;;;;12.15;7.95;;;12.70;99.90;;;;;;5063033;28;20083;-69
2022/07/30 03:32:11;;;;;;;13.95;8.18;;;12.80;99.90;;;;;;5055056;28;20791;-68
2022/07/30 03:34:37;;;;;;;12.77;7.70;;;12.80;99.90;;;;;;5058897;28;20063;-69
2022/07/30 03:37:04;;;;;;;13.85;8.27;;;12.70;99.90;;;;;;5039716;28;20025;-68
2022/07/30 03:39:33;;;;;;;11.43;8.27;;;12.70;99.90;;;;;;5059856;28;20028;-68
2022/07/30 03:42:00;;;;;;;12.93;8.40;;;12.60;99.90;;;;;;5058554;28;20513;-68
2022/07/30 03:44:26;;;;;;;10.52;7.38;;;12.60;99.90;;;;;;5058299;28;20521;-68
2022/07/30 03:46:53;;;;;;;10.07;7.82;;;12.60;99.90;;;;;;5059211;28;20028;-68
2022/07/30 03:49:21;;;;;;;10.95;6.93;;;12.50;99.90;;;;;;5060222;28;20040;-68
2022/07/30 03:51:48;;;;;;;12.23;7.30;;;12.50;99.90;;;;;;5060232;28;20066;-68
2022/07/30 03:54:14;;;;;;;11.40;7.03;;;12.50;99.90;;;;;;5058451;28;20048;-68
2022/07/30 03:56:41;;;;;;;12.50;7.47;;;12.50;99.90;;;;;;5060208;28;20032;-68
2022/07/30 03:59:07;;;;;;;9.82;7.13;;;12.50;99.90;;;;;;5059659;28;20047;-68
2022/07/30 04:01:33;;;;;;;12.95;7.45;;;12.50;99.90;;;;;;5059408;28;20097;-68
2022/07/30 04:04:09;;;;;;;13.88;8.57;;;12.60;99.90;;;;;;5055626;28;20285;-68
2022/07/30 04:06:39;;;;;;;12.13;7.15;;;12.70;99.90;;;;;;5059055;28;20037;-68
2022/07/30 04:09:07;;;;;;;12.63;7.95;;;12.70;99.90;;;;;;5058513;28;20031;-68
2022/07/30 04:11:32;;;;;;;13.23;7.55;;;12.80;99.90;;;;;;5059428;28;20053;-69
2022/07/30 04:13:58;;;;;;;11.80;7.70;;;12.70;99.90;;;;;;5057365;28;20035;-68
2022/07/30 04:16:38;;;;;;;11.00;7.13;;;12.80;99.90;;;;;;5057608;28;20723;-68
2022/07/30 04:19:09;;;;;;;11.77;7.85;;;12.80;99.90;;;;;;5058881;28;21718;-69
2022/07/30 04:21:39;;;;;;;11.20;7.55;;;12.60;99.90;;;;;;5059822;28;20024;-69
2022/07/30 04:24:06;;;;;;;14.27;8.55;;;12.60;99.90;;;;;;5061415;28;20043;-69
2022/07/30 04:26:34;;;;;;;11.23;7.20;;;12.50;99.90;;;;;;5058675;28;20036;-68
2022/07/30 04:29:05;;;;;;;14.15;8.30;;;12.50;99.90;;;;;;5059270;28;20039;-68
2022/07/30 04:31:34;;;;;;;9.70;6.90;;;12.60;99.90;;;;;;5059905;28;20035;-68
2022/07/30 04:34:04;;;;;;;11.50;7.50;;;12.60;99.90;;;;;;5041280;28;20036;-69
2022/07/30 04:36:31;;;;;;;12.05;7.70;;;12.60;99.90;;;;;;5059469;28;20040;-69
2022/07/30 04:38:58;;;;;;;12.05;7.45;;;12.60;99.90;;;;;;5058687;28;20501;-68
2022/07/30 04:41:25;;;;;;;13.18;7.80;;;12.60;99.90;;;;;;5058745;28;20052;-67
2022/07/30 04:43:51;;;;;;;12.55;7.70;;;12.70;99.90;;;;;;5056994;28;20032;-68
2022/07/30 04:46:17;;;;;;;12.20;7.90;;;12.70;99.90;;;;;;5058623;28;20108;-68
2022/07/30 04:48:43;;;;;;;11.88;8.10;;;12.70;99.90;;;;;;5059594;28;20190;-68
2022/07/30 04:51:16;;;;;;;10.88;7.90;;;12.70;99.90;;;;;;5059711;28;20036;-68
2022/07/30 04:53:42;;;;;;;11.77;8.38;;;12.60;99.90;;;;;;5059618;28;20039;-68
2022/07/30 04:56:09;;;;;;;12.85;7.18;;;12.40;99.90;;;;;;5039994;28;20136;-68
2022/07/30 04:58:40;;;;;;;11.07;7.93;;;12.40;99.90;;;;;;5058213;28;20094;-68
2022/07/30 05:01:06;;;;;;;12.63;8.20;;;12.40;99.90;;;;;;5057347;28;20055;-68
2022/07/30 05:03:34;;;;;;;15.82;8.55;;;12.40;99.90;;;;;;5058933;28;20040;-68
2022/07/30 05:06:00;;;;;;;10.55;7.65;;;12.40;99.90;;;;;;5044516;28;20048;-68
2022/07/30 05:08:26;;;;;;;10.25;7.18;;;12.40;99.90;;;;;;5060525;28;20581;-69
2022/07/30 05:10:52;;;;;;;10.38;6.90;;;12.50;99.90;;;;;;5045305;28;20078;-69
2022/07/30 05:13:18;;;;;;;12.38;8.02;;;12.50;99.90;;;;;;5062856;28;20720;-68
2022/07/30 05:15:44;;;;;;;15.38;9.65;;;12.60;99.90;;;;;;5062900;28;20040;-68
2022/07/30 05:18:10;;;;;;;14.73;10.43;;;12.70;99.90;;;;;;5061155;28;20032;-67
2022/07/30 05:20:36;;;;;;;16.40;10.27;;;12.80;99.90;;;;;;5062702;28;20044;-68
2022/07/30 05:23:02;;;;;;;17.35;12.63;;;12.80;99.90;;;;;;5064699;28;20035;-68
2022/07/30 05:25:28;;;;;;;18.27;12.45;;;12.90;99.90;;;;;;5045116;28;20053;-68
2022/07/30 05:27:55;;;;;;;17.73;12.57;;;12.90;99.90;;;;;;5062087;28;20028;-68
2022/07/30 05:30:21;;;;;;;15.98;12.25;;;13.00;99.90;;;;;;5060578;28;20493;-68
2022/07/30 05:32:47;;;;;;;13.98;10.48;;;13.10;99.90;;;;;;5064517;28;20033;-67
2022/07/30 05:35:13;;;;;;;13.82;10.27;;;13.20;99.90;;;;;;5060250;28;20028;-68
2022/07/30 05:37:38;;;;;;;14.90;10.15;;;13.30;99.90;;;;;;5060430;28;20033;-67
2022/07/30 05:40:05;;;;;;;16.48;11.30;;;13.40;99.90;;;;;;5061259;28;20768;-68
2022/07/30 05:42:30;;;;;;;17.17;11.75;;;13.40;99.90;;;;;;5060808;28;20064;-68
2022/07/30 05:44:56;;;;;;;19.17;11.70;;;13.50;99.90;;;;;;5059642;28;20104;-67
2022/07/30 05:47:22;;;;;;;20.30;12.25;;;13.50;99.90;;;;;;5061440;28;20033;-67
2022/07/30 05:49:47;;;;;;;16.27;11.65;;;13.50;99.90;;;;;;5063556;28;20067;-67
2022/07/30 05:52:13;;;;;;;19.92;13.65;;;13.60;99.90;;;;;;5062306;28;20035;-67
2022/07/30 05:54:39;;;;;;;16.35;11.73;;;13.70;99.90;;;;;;5063454;28;20028;-68
2022/07/30 05:57:04;;;;;;;17.50;11.60;;;13.80;99.90;;;;;;5044501;28;20441;-68
2022/07/30 05:59:30;;;;;;;14.27;9.57;;;13.90;99.90;;;;;;5043589;28;20039;-67
2022/07/30 06:01:56;;;;;;;11.95;9.18;;;14.00;99.90;;;;;;5054455;28;20040;-68
2022/07/30 06:04:22;;;;;;;12.00;8.43;;;14.20;99.90;;;;;;5059048;28;20117;-68
2022/07/30 06:06:47;;;;;;;10.82;7.78;;;14.30;99.90;;;;;;5060730;28;20154;-68
2022/07/30 06:09:13;;;;;;;15.27;8.60;;;14.40;99.90;;;;;;5038985;28;20159;-68
2022/07/30 06:11:39;;;;;;;11.90;8.27;;;14.60;99.90;;;;;;5060807;28;20057;-68
2022/07/30 06:14:05;;;;;;;12.95;8.20;;;14.70;99.90;;;;;;5059586;28;20473;-68
2022/07/30 06:16:30;;;;;;;11.32;8.27;;;14.90;99.90;;;;;;5044034;28;20028;-68
2022/07/30 06:18:56;;;;;;;12.48;8.38;;;15.00;99.90;;;;;;5042580;28;20028;-68
2022/07/30 06:21:22;;;;;;;14.13;10.25;;;15.10;99.90;;;;;;5059378;28;20025;-68
2022/07/30 06:23:48;;;;;;;14.77;9.43;;;15.20;99.90;;;;;;5060261;28;20093;-68
2022/07/30 06:26:14;;;;;;;14.88;12.02;;;15.30;99.90;;;;;;5054939;28;20245;-68
2022/07/30 06:28:39;;;;;;;16.38;12.02;;;15.40;99.90;;;;;;5058684;28;20037;-68
2022/07/30 06:31:06;;;;;;;16.23;12.10;;;15.50;99.90;;;;;;5059885;28;20029;-68
2022/07/30 06:33:31;;;;;;;18.00;11.98;;;15.60;99.90;;;;;;5059387;28;20462;-68
2022/07/30 06:35:57;;;;;;;16.08;11.70;;;15.60;99.90;;;;;;5058842;28;20040;-68
2022/07/30 06:38:23;;;;;;;17.20;12.77;;;15.70;99.90;;;;;;5040487;28;20032;-68
2022/07/30 06:40:48;;;;;;;18.50;12.68;;;15.80;99.90;;;;;;5060440;28;20036;-68
2022/07/30 06:43:14;;;;;;;18.08;12.85;;;15.90;99.90;;;;;;5062202;28;20036;-68
2022/07/30 06:45:40;;;;;;;18.13;12.77;;;16.00;99.90;;;;;;5060699;28;20036;-68
2022/07/30 06:48:06;;;;;;;19.35;14.80;;;16.10;99.90;;;;;;5045969;28;20036;-68
2022/07/30 06:50:32;;;;;;;16.88;14.75;;;16.20;99.90;;;;;;5060929;28;20033;-68
2022/07/30 06:52:57;;;;;;;19.17;14.68;;;16.40;99.90;;;;;;5060192;28;20032;-68
2022/07/30 06:55:24;;;;;;;19.17;14.85;;;16.50;99.90;;;;;;5059738;28;20024;-69
2022/07/30 06:57:50;;;;;;;19.27;13.57;;;16.60;99.90;;;;;;5061724;28;20025;-68
2022/07/30 07:00:16;;;;;;;17.73;12.80;;;16.80;99.90;;;;;;5039956;28;20414;-68
2022/07/30 07:02:42;;;;;;;19.55;13.57;;;16.90;99.90;;;;;;5059374;28;20032;-68
2022/07/30 07:05:08;;;;;;;20.38;13.30;;;17.00;99.90;;;;;;5041338;28;20029;-68
2022/07/30 07:07:34;;;;;;;18.70;13.10;;;17.10;99.90;;;;;;5057193;28;20722;-69
2022/07/30 07:10:00;;;;;;;17.98;13.32;;;17.30;99.90;;;;;;5044572;28;20040;-69
2022/07/30 07:12:26;;;;;;;18.73;13.50;;;17.40;99.90;;;;;;5056660;28;20068;-68
2022/07/30 07:14:52;;;;;;;17.50;13.23;;;17.60;99.90;;;;;;5059556;28;20119;-69
2022/07/30 07:17:18;;;;;;;15.90;11.98;;;17.80;99.90;;;;;;5057908;28;20110;-68
2022/07/30 07:19:44;;;;;;;17.45;11.88;;;17.90;99.90;;;;;;5039151;28;20457;-68
2022/07/30 07:22:10;;;;;;;15.05;11.52;;;18.10;99.90;;;;;;5041255;28;20037;-68
2022/07/30 07:24:36;;;;;;;18.27;11.65;;;18.30;99.90;;;;;;5041847;28;20039;-68
2022/07/30 07:27:01;;;;;;;19.52;13.27;;;18.40;99.90;;;;;;5056243;28;20039;-69
2022/07/30 07:29:27;;;;;;;17.80;13.55;;;18.60;99.90;;;;;;5055885;28;20044;-68
2022/07/30 07:31:53;;;;;;;19.65;11.30;;;18.80;99.90;;;;;;5059280;28;21443;-68
2022/07/30 07:34:18;;;;;;;13.82;10.73;;;19.00;99.90;;;;;;5059280;28;20036;-68
2022/07/30 07:36:44;;;;;;;15.82;11.75;;;19.10;99.90;;;;;;5055126;28;20123;-69
2022/07/30 07:39:10;;;;;;;13.48;10.45;;;19.30;99.90;;;;;;5057063;28;20399;-68
2022/07/30 07:41:36;;;;;;;13.73;10.60;;;19.50;99.90;;;;;;5055966;28;20620;-68
2022/07/30 07:44:05;;;;;;;12.73;10.02;;;19.70;99.90;;;;;;5037505;28;20058;-67
2022/07/30 07:46:31;;;;;;;17.13;11.90;;;19.80;99.90;;;;;;5059273;28;20032;-68
2022/07/30 07:48:57;;;;;;;13.95;11.50;;;19.90;99.90;;;;;;5056754;28;20035;-68
2022/07/30 07:51:23;;;;;;;15.82;11.68;;;20.00;99.90;;;;;;5061109;28;20048;-68
2022/07/30 07:53:48;;;;;;;14.30;12.63;;;20.00;99.90;;;;;;5058732;28;20450;-68
2022/07/30 07:56:14;;;;;;;19.63;12.77;;;20.00;99.90;;;;;;5058110;28;20474;-68
2022/07/30 07:58:40;;;;;;;18.05;12.65;;;20.00;99.90;;;;;;5057198;28;20402;-68
2022/07/30 08:01:05;;;;;;;16.73;12.23;;;20.10;99.90;;;;;;5038292;28;20063;-68
2022/07/30 08:03:31;;;;;;;19.67;12.82;;;20.00;99.90;;;;;;5056787;28;20115;-68
2022/07/30 08:05:57;;;;;;;17.25;12.88;;;20.10;99.90;;;;;;5059053;28;20058;-67
2022/07/30 08:08:23;;;;;;;18.08;13.60;;;20.20;99.90;;;;;;5041066;28;20037;-68
2022/07/30 08:10:49;;;;;;;16.15;14.18;;;20.20;99.90;;;;;;5058403;28;20060;-68
2022/07/30 08:13:15;;;;;;;16.15;12.90;;;20.30;99.90;;;;;;5042462;28;20543;-68
2022/07/30 08:15:41;;;;;;;18.52;14.00;;;20.30;99.90;;;;;;5059015;28;20032;-69
2022/07/30 08:18:10;;;;;;;16.10;13.75;;;20.40;99.90;;;;;;5057982;28;20037;-69
2022/07/30 08:20:36;;;;;;;19.88;13.20;;;20.40;99.90;;;;;;5058252;28;20032;-68
2022/07/30 08:23:03;;;;;;;15.70;11.30;;;20.50;99.90;;;;;;5043505;28;20037;-68
2022/07/30 08:25:29;;;;;;;13.82;10.25;;;20.60;99.90;;;;;;5058406;28;20025;-69
2022/07/30 08:27:54;;;;;;;13.50;11.35;;;20.70;99.90;;;;;;5061043;28;20044;-69
2022/07/30 08:30:20;;;;;;;15.13;12.35;;;20.90;99.90;;;;;;5041989;28;20132;-68
2022/07/30 08:32:46;;;;;;;16.20;11.93;;;21.00;99.90;;;;;;5055591;28;20036;-69
2022/07/30 08:35:12;;;;;;;17.02;12.63;;;21.20;99.90;;;;;;5057607;28;20090;-68
2022/07/30 08:37:39;;;;;;;16.90;11.57;;;21.40;99.90;;;;;;5060501;28;20047;-69
2022/07/30 08:40:06;;;;;;;12.02;9.85;;;21.50;99.90;;;;;;5059191;28;21763;-69
2022/07/30 08:42:34;;;;;;;15.27;10.13;;;21.50;99.90;;;;;;5041823;28;20693;-68
2022/07/30 08:45:00;;;;;;;12.63;9.63;;;21.50;99.90;;;;;;5056868;28;20037;-68
2022/07/30 08:47:33;;;;;;;11.25;8.65;;;21.50;99.90;;;;;;5040937;28;20482;-68
2022/07/30 08:50:03;;;;;;;9.77;7.60;;;21.50;99.90;;;;;;5060348;28;21095;-68
2022/07/30 08:52:34;;;;;;;13.13;7.75;;;21.50;99.90;;;;;;5061833;28;20043;-69
2022/07/30 08:55:00;;;;;;;13.02;8.75;;;21.50;99.90;;;;;;5060984;28;20070;-69
2022/07/30 08:57:33;;;;;;;11.70;6.65;;;21.50;99.90;;;;;;5040318;28;20033;-68
2022/07/30 08:59:59;;;;;;;18.50;7.60;;;21.50;99.90;;;;;;5059066;28;20028;-68
2022/07/30 09:02:25;;;;;;;8.15;5.10;;;21.40;99.90;;;;;;5055744;28;20502;-69
2022/07/30 09:04:51;;;;;;;8.25;4.00;;;21.30;99.90;;;;;;5059049;28;20478;-69
2022/07/30 09:07:17;;;;;;;10.43;5.35;;;21.30;99.90;;;;;;5058494;28;20143;-68
2022/07/30 09:09:43;;;;;;;9.93;5.53;;;21.30;99.90;;;;;;5054569;28;20024;-68
2022/07/30 09:12:31;;;;;;;7.63;5.55;;;21.30;99.90;;;;;;5055611;28;20049;-68
2022/07/30 09:15:15;;;;;;;9.85;5.28;;;21.30;99.90;;;;;;5036574;28;20143;-69
2022/07/30 09:17:53;;;;;;;10.75;5.25;;;21.30;99.90;;;;;;5058243;28;20453;-69
2022/07/30 09:20:21;;;;;;;10.52;4.90;;;21.30;99.90;;;;;;5057587;28;20501;-68
2022/07/30 09:22:49;;;;;;;10.20;4.85;;;21.30;99.90;;;;;;5038533;28;20069;-68
2022/07/30 09:25:23;;;;;;;9.77;5.05;;;21.30;99.90;;;;;;5058912;28;20029;-69
2022/07/30 09:27:49;;;;;;;9.60;4.20;;;21.30;99.90;;;;;;5056551;28;20063;-69
2022/07/30 09:30:15;;;;;;;10.10;5.00;;;21.30;99.90;;;;;;5036321;28;20500;-68
2022/07/30 09:32:48;;;;;;;9.70;4.53;;;21.30;99.90;;;;;;5057980;28;20037;-69
2022/07/30 09:35:14;;;;;;;11.25;4.30;;;21.30;99.90;;;;;;5056664;28;20033;-69
2022/07/30 09:37:40;;;;;;;9.68;4.70;;;21.40;99.90;;;;;;5056516;28;20038;-68
2022/07/30 09:40:16;;;;;;;7.75;4.03;;;21.50;99.90;;;;;;5059425;28;20354;-68
2022/07/30 09:42:43;;;;;;;10.60;4.07;;;21.60;99.90;;;;;;5059570;28;20066;-68
2022/07/30 09:45:13;;;;;;;7.43;3.85;;;21.70;99.60;;;;;;5039170;28;20035;-68
2022/07/30 09:47:40;;;;;;;8.35;5.00;;;21.70;99.90;;;;;;5057506;28;20162;-66
2022/07/30 09:50:12;;;;;;;7.72;4.10;;;21.80;99.90;;;;;;5057671;28;20102;-69
2022/07/30 09:52:42;;;;;;;9.02;4.68;;;21.80;99.90;;;;;;5060996;28;20044;-69
2022/07/30 09:55:07;;;;;;;;;;;21.80;99.90;;;;;;5041465;28;20032;-68
2022/07/30 09:57:34;;;;;;;9.15;3.85;;;21.80;99.90;;;;;;5063947;28;19919;-68
2022/07/30 10:00:20;;;;;;;8.18;3.63;;;21.90;99.90;;;;;;5060428;28;20486;-68
2022/07/30 10:02:46;;;;;;;10.13;5.25;;;21.90;99.90;;;;;;5042834;28;20273;-68
2022/07/30 10:05:14;;;;;;;7.57;3.50;;;22.00;99.90;;;;;;5043956;28;20039;-69
2022/07/30 10:07:52;;;;;;;7.93;3.92;;;22.00;99.90;;;;;;5058680;28;20055;-66
2022/07/30 10:10:23;;;;;;;7.22;3.72;;;22.10;99.90;;;;;;5057925;28;20044;-67
2022/07/30 10:12:52;;;;;;;7.68;3.42;;;22.20;99.90;;;;;;5060655;28;20053;-68
2022/07/30 10:15:20;;;;;;;7.57;3.00;;;22.30;99.90;;;;;;5039201;28;20149;-70
2022/07/30 10:17:47;;;;;;;8.23;3.30;;;22.50;99.90;;;;;;5061876;28;20032;-68
2022/07/30 10:20:14;;;;;;;6.65;3.35;;;22.60;99.90;;;;;;5058539;28;20029;-68
2022/07/30 10:22:43;;;;;;;5.45;3.15;;;22.70;99.90;;;;;;5059151;28;20051;-67
2022/07/30 10:25:09;;;;;;;6.57;3.05;;;22.80;99.90;;;;;;5055851;28;20068;-68
2022/07/30 10:27:36;;;;;;;7.65;2.85;;;22.70;99.90;;;;;;5056528;28;20044;-70
2022/07/30 10:30:03;;;;;;;8.20;3.65;;;22.60;99.90;;;;;;5055727;28;20506;-68
2022/07/30 10:32:30;;;;;;;8.73;2.95;;;22.50;99.90;;;;;;5056487;28;20043;-68
2022/07/30 10:34:57;;;;;;;9.75;3.10;;;22.50;99.90;;;;;;5059381;28;20561;-68
2022/07/30 10:37:26;;;;;;;6.55;3.20;;;22.60;99.90;;;;;;5056442;28;20264;-67
2022/07/30 10:39:56;;;;;;;8.75;3.35;;;22.90;99.90;;;;;;5059531;28;20036;-69
2022/07/30 10:42:44;;;;;;;8.38;3.22;;;23.10;99.90;;;;;;5060795;28;20047;-70
2022/07/30 10:45:16;;;;;;;8.63;3.45;;;23.30;99.90;;;;;;5056154;28;21712;-70
2022/07/30 10:47:43;;;;;;;6.75;3.17;;;23.40;99.90;;;;;;5061211;28;20024;-69
2022/07/30 10:50:24;;;;;;;6.18;2.97;;;23.60;99.90;;;;;;5041031;28;20044;-69
2022/07/30 10:52:55;;;;;;;6.90;2.60;;;23.90;99.90;;;;;;5040837;28;20141;-68
2022/07/30 10:55:26;;;;;;;8.98;3.17;;;24.10;99.70;;;;;;5035576;28;20037;-70
2022/07/30 10:58:04;;;;;;;8.70;3.08;;;24.10;98.70;;;;;;5057772;28;20032;-67
2022/07/30 11:00:33;;;;;;;7.80;3.53;;;24.00;99.30;;;;;;5062137;28;20067;-68
2022/07/30 11:03:28;;;;;;;7.72;3.42;;;24.00;98.90;;;;;;5062198;28;20186;-69
2022/07/30 11:06:16;;;;;;;7.60;3.70;;;23.90;99.90;;;;;;5055028;28;20033;-68
2022/07/30 11:08:44;;;;;;;10.77;3.40;;;24.00;99.80;;;;;;5058667;28;20037;-68
2022/07/30 11:11:21;;;;;;;8.07;3.20;;;24.10;99.90;;;;;;5031606;28;20053;-69
2022/07/30 11:13:53;;;;;;;6.45;3.00;;;24.30;99.80;;;;;;5020747;28;20125;-70
2022/07/30 11:16:40;;;;;;;8.38;2.85;;;24.20;99.90;;;;;;5017912;28;20543;-69
2022/07/30 11:19:12;;;;;;;6.35;2.53;;;24.20;99.90;;;;;;5020117;28;20082;-68
2022/07/30 11:21:38;;;;;;;7.00;2.65;;;24.40;99.90;;;;;;5020570;28;20041;-69
2022/07/30 11:24:04;;;;;;;8.20;2.63;;;24.60;99.60;;;;;;5018226;28;20038;-68
2022/07/30 11:26:40;;;;;;;8.77;2.80;;;24.70;98.80;;;;;;5017956;28;20053;-68
2022/07/30 11:29:06;;;;;;;7.30;2.90;;;24.80;99.20;;;;;;5018787;28;20087;-68
2022/07/30 11:31:34;;;;;;;6.00;2.35;;;24.90;98.30;;;;;;5015961;28;20330;-69
2022/07/30 11:34:18;;;;;;;6.40;2.13;;;25.00;96.70;;;;;;5016005;28;20561;-68
2022/07/30 11:37:06;;;;;;;6.15;2.40;;;25.80;94.80;;;;;;5021989;28;20033;-68
2022/07/30 11:39:53;;;;;;;7.78;1.70;;;25.90;92.40;;;;;;5023476;28;21598;-69
2022/07/30 11:42:27;;;;;;;6.60;2.05;;;25.60;93.80;;;;;;5026564;28;20513;-67
2022/07/30 11:45:22;;;;;;;9.32;2.30;;;25.20;93.80;;;;;;5025811;28;20030;-68
2022/07/30 11:47:52;;;;;;;7.80;2.08;;;24.90;94.50;;;;;;5020546;28;20173;-69
2022/07/30 11:50:27;;;;;;;7.20;2.00;;;24.90;94.40;;;;;;5021667;28;20562;-69
2022/07/30 11:52:56;;;;;;;5.28;1.77;;;25.10;93.80;;;;;;5016232;28;20091;-69
2022/07/30 11:55:37;;;;;;;7.40;1.95;;;25.10;92.90;;;;;;5027117;28;20044;-68
2022/07/30 11:58:22;;;;;;;5.07;1.80;;;25.00;91.80;;;;;;5012600;28;20041;-67
2022/07/30 12:00:49;;;;;;;4.47;1.40;;;24.70;92.30;;;;;;5026786;28;20100;-68
2022/07/30 12:03:17;;;;;;;5.45;1.88;;;24.50;94.10;;;;;;5029091;28;20033;-68
2022/07/30 12:05:44;;;;;;;8.18;1.83;;;24.30;94.30;;;;;;5023809;28;20029;-68
2022/07/30 12:08:10;;;;;;;4.85;1.60;;;24.20;94.40;;;;;;5025224;28;20387;-68
2022/07/30 12:10:38;;;;;;;4.65;2.05;;;24.20;95.70;;;;;;5011351;28;20041;-69
2022/07/30 12:13:09;;;;;;;8.02;2.20;;;24.10;96.50;;;;;;5065166;28;20194;-69
2022/07/30 12:15:38;;;;;;;7.93;2.08;;;24.00;96.80;;;;;;5064877;28;20036;-69
2022/07/30 12:18:04;;;;;;;8.00;2.10;;;23.90;97.50;;;;;;5068703;28;20498;-67
2022/07/30 12:20:30;;;;;;;4.45;2.00;;;23.90;97.00;;;;;;5067971;28;20039;-68
2022/07/30 12:22:56;;;;;;;10.10;2.13;;;23.70;97.00;;;;;;5074990;28;20033;-69
2022/07/30 12:25:22;;;;;;;5.32;2.45;;;23.60;97.50;;;;;;5061068;28;20033;-69
2022/07/30 12:27:49;;;;;;;6.85;2.28;;;23.50;98.00;;;;;;5060605;28;20032;-68
2022/07/30 12:30:16;;;;;;;6.60;1.90;;;23.40;98.20;;;;;;5066271;28;20121;-69
2022/07/30 12:32:46;;;;;;;4.28;1.65;;;23.40;98.80;;;;;;5063475;28;20059;-69
2022/07/30 12:35:13;;;;;;;5.57;1.63;;;23.40;98.70;;;;;;5062952;28;20055;-69
2022/07/30 12:37:38;;;;;;;4.55;1.52;;;23.50;98.90;;;;;;5062957;28;20029;-69
2022/07/30 12:40:05;;;;;;;6.07;1.80;;;23.70;99.10;;;;;;5063714;28;20367;-70
2022/07/30 12:42:31;;;;;;;5.82;1.50;;;23.80;97.20;;;;;;5063913;28;20616;-68
2022/07/30 12:44:57;;;;;;;3.05;1.55;;;23.70;96.90;;;;;;5041885;28;20119;-69
2022/07/30 12:47:24;;;;;;;3.83;1.73;;;23.60;98.10;;;;;;5062925;28;20065;-69